sensor_id;sensor_type;location;lat;lon;timestamp;temperature;humidity
36790;DHT22;22740;52.182;8.780;2023-06-22T00:05:48;19.80;99.90
36790;DHT22;22740;52.182;8.780;2023-06-22T00:11:50;19.80;99.90
36790;DHT22;22740;52.182;8.780;2023-06-22T00:17:52;19.80;99.90
36790;DHT22;22740;52.182;8.780;2023-06-22T00:23:54;19.60;99.90
36790;DHT22;22740;52.182;8.780;2023-06-22T00:29:56;19.70;99.90
36790;DHT22;22740;52.182;8.780;2023-06-22T00:35:57;19.60;99.90
36790;DHT22;22740;52.182;8.780;2023-06-22T00:41:59;19.60;99.90
36790;DHT22;22740;52.182;8.780;2023-06-22T00:48:02;19.40;99.90
36790;DHT22;22740;52.182;8.780;2023-06-22T00:54:05;19.40;99.90
36790;DHT22;22740;52.182;8.780;2023-06-22T01:00:08;19.40;99.90
36790;DHT22;22740;52.182;8.780;2023-06-22T01:06:14;19.40;99.90
36790;DHT22;22740;52.182;8.780;2023-06-22T01:12:18;19.30;99.90
36790;DHT22;22740;52.182;8.780;2023-06-22T01:18:21;19.40;99.90
36790;DHT22;22740;52.182;8.780;2023-06-22T01:24:32;19.20;99.90
36790;DHT22;22740;52.182;8.780;2023-06-22T01:30:37;19.30;99.90
36790;DHT22;22740;52.182;8.780;2023-06-22T01:36:41;19.10;99.90
36790;DHT22;22740;52.182;8.780;2023-06-22T01:42:44;18.90;99.90
36790;DHT22;22740;52.182;8.780;2023-06-22T01:48:46;18.70;99.90
36790;DHT22;22740;52.182;8.780;2023-06-22T01:54:49;18.80;99.90
36790;DHT22;22740;52.182;8.780;2023-06-22T02:00:55;18.80;99.90
36790;DHT22;22740;52.182;8.780;2023-06-22T02:07:00;19.00;99.90
36790;DHT22;22740;52.182;8.780;2023-06-22T02:13:06;19.00;99.90
36790;DHT22;22740;52.182;8.780;2023-06-22T02:19:08;19.10;99.90
36790;DHT22;22740;52.182;8.780;2023-06-22T02:25:10;19.00;99.90
36790;DHT22;22740;52.182;8.780;2023-06-22T02:31:12;18.60;99.90
36790;DHT22;22740;52.182;8.780;2023-06-22T02:37:14;18.40;99.90
36790;DHT22;22740;52.182;8.780;2023-06-22T02:43:16;18.50;99.90
36790;DHT22;22740;52.182;8.780;2023-06-22T02:49:18;18.50;99.90
36790;DHT22;22740;52.182;8.780;2023-06-22T02:55:20;18.80;99.90
36790;DHT22;22740;52.182;8.780;2023-06-22T03:01:22;18.90;99.90
36790;DHT22;22740;52.182;8.780;2023-06-22T03:07:26;18.40;99.90
36790;DHT22;22740;52.182;8.780;2023-06-22T03:13:30;18.30;99.90
36790;DHT22;22740;52.182;8.780;2023-06-22T03:19:32;18.30;99.90
36790;DHT22;22740;52.182;8.780;2023-06-22T03:25:35;18.30;99.90
36790;DHT22;22740;52.182;8.780;2023-06-22T03:31:37;18.70;99.90
36790;DHT22;22740;52.182;8.780;2023-06-22T03:37:39;18.90;99.90
36790;DHT22;22740;52.182;8.780;2023-06-22T03:43:42;18.90;99.90
36790;DHT22;22740;52.182;8.780;2023-06-22T03:49:44;18.80;99.90
36790;DHT22;22740;52.182;8.780;2023-06-22T03:55:52;18.30;99.90
36790;DHT22;22740;52.182;8.780;2023-06-22T04:01:54;18.20;99.90
36790;DHT22;22740;52.182;8.780;2023-06-22T04:07:56;18.30;99.90
36790;DHT22;22740;52.182;8.780;2023-06-22T04:13:58;18.40;99.90
36790;DHT22;22740;52.182;8.780;2023-06-22T04:20:00;18.40;99.90
36790;DHT22;22740;52.182;8.780;2023-06-22T04:26:02;18.30;99.90
36790;DHT22;22740;52.182;8.780;2023-06-22T04:32:05;18.10;99.90
36790;DHT22;22740;52.182;8.780;2023-06-22T04:38:08;18.60;99.90
36790;DHT22;22740;52.182;8.780;2023-06-22T04:44:16;18.90;99.90
36790;DHT22;22740;52.182;8.780;2023-06-22T04:50:26;18.70;99.90
36790;DHT22;22740;52.182;8.780;2023-06-22T04:56:28;18.60;99.90
36790;DHT22;22740;52.182;8.780;2023-06-22T05:02:30;18.40;99.90
36790;DHT22;22740;52.182;8.780;2023-06-22T05:08:34;18.40;99.90
36790;DHT22;22740;52.182;8.780;2023-06-22T05:14:36;18.40;99.90
36790;DHT22;22740;52.182;8.780;2023-06-22T05:20:38;18.40;99.90
36790;DHT22;22740;52.182;8.780;2023-06-22T05:26:40;18.60;99.90
36790;DHT22;22740;52.182;8.780;2023-06-22T05:32:42;19.00;99.90
36790;DHT22;22740;52.182;8.780;2023-06-22T05:38:46;18.90;99.90
36790;DHT22;22740;52.182;8.780;2023-06-22T05:44:48;18.90;99.90
36790;DHT22;22740;52.182;8.780;2023-06-22T05:50:50;19.00;99.90
36790;DHT22;22740;52.182;8.780;2023-06-22T05:56:52;19.20;99.90
36790;DHT22;22740;52.182;8.780;2023-06-22T06:02:54;19.40;99.90
36790;DHT22;22740;52.182;8.780;2023-06-22T06:08:56;19.50;99.90
36790;DHT22;22740;52.182;8.780;2023-06-22T06:14:58;19.50;99.90
36790;DHT22;22740;52.182;8.780;2023-06-22T06:21:00;19.80;99.90
36790;DHT22;22740;52.182;8.780;2023-06-22T06:27:02;20.00;99.90
36790;DHT22;22740;52.182;8.780;2023-06-22T06:33:06;20.30;99.90
36790;DHT22;22740;52.182;8.780;2023-06-22T06:39:10;20.60;99.90
36790;DHT22;22740;52.182;8.780;2023-06-22T06:45:20;20.50;99.90
36790;DHT22;22740;52.182;8.780;2023-06-22T06:51:24;20.60;99.90
36790;DHT22;22740;52.182;8.780;2023-06-22T06:57:26;20.90;99.90
36790;DHT22;22740;52.182;8.780;2023-06-22T07:03:31;21.40;99.90
36790;DHT22;22740;52.182;8.780;2023-06-22T07:09:34;21.60;99.90
36790;DHT22;22740;52.182;8.780;2023-06-22T07:15:37;21.70;99.90
36790;DHT22;22740;52.182;8.780;2023-06-22T07:21:39;21.70;99.90
36790;DHT22;22740;52.182;8.780;2023-06-22T07:28:06;21.60;99.90
36790;DHT22;22740;52.182;8.780;2023-06-22T07:34:07;21.60;99.90
36790;DHT22;22740;52.182;8.780;2023-06-22T07:40:10;21.60;99.90
36790;DHT22;22740;52.182;8.780;2023-06-22T07:46:12;21.50;99.90
36790;DHT22;22740;52.182;8.780;2023-06-22T07:52:14;21.40;99.90
36790;DHT22;22740;52.182;8.780;2023-06-22T07:58:16;21.20;99.90
36790;DHT22;22740;52.182;8.780;2023-06-22T08:04:21;21.20;99.90
36790;DHT22;22740;52.182;8.780;2023-06-22T08:10:23;21.20;99.90
36790;DHT22;22740;52.182;8.780;2023-06-22T08:16:25;21.20;99.90
36790;DHT22;22740;52.182;8.780;2023-06-22T08:22:27;21.20;99.90
36790;DHT22;22740;52.182;8.780;2023-06-22T08:28:29;21.30;99.90
36790;DHT22;22740;52.182;8.780;2023-06-22T08:34:31;21.40;99.90
36790;DHT22;22740;52.182;8.780;2023-06-22T08:40:33;21.30;99.90
36790;DHT22;22740;52.182;8.780;2023-06-22T08:46:35;21.30;99.90
36790;DHT22;22740;52.182;8.780;2023-06-22T08:52:41;21.50;99.90
36790;DHT22;22740;52.182;8.780;2023-06-22T08:58:43;21.60;99.90
36790;DHT22;22740;52.182;8.780;2023-06-22T09:04:48;21.80;99.90
36790;DHT22;22740;52.182;8.780;2023-06-22T09:10:51;22.10;99.90
36790;DHT22;22740;52.182;8.780;2023-06-22T09:16:53;22.10;99.90
36790;DHT22;22740;52.182;8.780;2023-06-22T09:22:55;22.10;99.90
36790;DHT22;22740;52.182;8.780;2023-06-22T09:28:57;22.20;99.90
36790;DHT22;22740;52.182;8.780;2023-06-22T09:35:04;22.20;99.90
36790;DHT22;22740;52.182;8.780;2023-06-22T09:41:07;22.30;99.90
36790;DHT22;22740;52.182;8.780;2023-06-22T09:47:09;22.60;99.90
36790;DHT22;22740;52.182;8.780;2023-06-22T09:53:11;22.80;99.90
36790;DHT22;22740;52.182;8.780;2023-06-22T09:59:13;22.50;99.90
36790;DHT22;22740;52.182;8.780;2023-06-22T10:05:19;22.80;99.90
36790;DHT22;22740;52.182;8.780;2023-06-22T10:11:21;22.90;99.90
36790;DHT22;22740;52.182;8.780;2023-06-22T10:17:28;22.90;99.90
36790;DHT22;22740;52.182;8.780;2023-06-22T10:23:30;23.00;99.90
36790;DHT22;22740;52.182;8.780;2023-06-22T10:29:32;23.10;99.90
36790;DHT22;22740;52.182;8.780;2023-06-22T10:35:35;23.70;99.90
36790;DHT22;22740;52.182;8.780;2023-06-22T10:41:39;23.90;99.90
36790;DHT22;22740;52.182;8.780;2023-06-22T10:47:41;23.90;99.90
36790;DHT22;22740;52.182;8.780;2023-06-22T10:53:44;23.80;99.90
36790;DHT22;22740;52.182;8.780;2023-06-22T10:59:46;23.90;99.90
36790;DHT22;22740;52.182;8.780;2023-06-22T11:05:48;23.70;99.90
36790;DHT22;22740;52.182;8.780;2023-06-22T11:11:52;24.00;99.90
36790;DHT22;22740;52.182;8.780;2023-06-22T11:17:55;24.40;99.90
36790;DHT22;22740;52.182;8.780;2023-06-22T11:23:58;25.40;99.90
36790;DHT22;22740;52.182;8.780;2023-06-22T11:30:00;25.70;99.90
36790;DHT22;22740;52.182;8.780;2023-06-22T11:36:02;24.90;99.90
36790;DHT22;22740;52.182;8.780;2023-06-22T11:42:04;24.70;99.90
36790;DHT22;22740;52.182;8.780;2023-06-22T11:48:06;24.70;99.90
36790;DHT22;22740;52.182;8.780;2023-06-22T11:54:08;24.90;99.90
36790;DHT22;22740;52.182;8.780;2023-06-22T12:00:11;25.00;99.90
36790;DHT22;22740;52.182;8.780;2023-06-22T12:06:18;24.90;99.90
36790;DHT22;22740;52.182;8.780;2023-06-22T12:12:20;25.00;99.90
36790;DHT22;22740;52.182;8.780;2023-06-22T12:18:22;25.00;99.90
36790;DHT22;22740;52.182;8.780;2023-06-22T12:24:23;24.80;99.90
36790;DHT22;22740;52.182;8.780;2023-06-22T12:30:25;24.70;99.90
36790;DHT22;22740;52.182;8.780;2023-06-22T12:36:28;24.80;99.90
36790;DHT22;22740;52.182;8.780;2023-06-22T12:42:30;24.70;99.90
36790;DHT22;22740;52.182;8.780;2023-06-22T12:48:32;24.60;99.90
36790;DHT22;22740;52.182;8.780;2023-06-22T12:54:34;24.40;99.90
36790;DHT22;22740;52.182;8.780;2023-06-22T13:00:54;24.20;99.90
36790;DHT22;22740;52.182;8.780;2023-06-22T13:06:56;24.10;99.90
36790;DHT22;22740;52.182;8.780;2023-06-22T13:12:58;23.60;99.90
36790;DHT22;22740;52.182;8.780;2023-06-22T13:19:02;23.40;99.90
36790;DHT22;22740;52.182;8.780;2023-06-22T13:25:06;22.80;99.90
36790;DHT22;22740;52.182;8.780;2023-06-22T13:31:08;22.40;99.90
36790;DHT22;22740;52.182;8.780;2023-06-22T13:37:10;22.30;99.90
36790;DHT22;22740;52.182;8.780;2023-06-22T13:43:12;22.10;99.90
36790;DHT22;22740;52.182;8.780;2023-06-22T13:49:14;21.90;99.90
36790;DHT22;22740;52.182;8.780;2023-06-22T13:55:16;21.90;99.90
36790;DHT22;22740;52.182;8.780;2023-06-22T14:01:18;21.90;99.90
36790;DHT22;22740;52.182;8.780;2023-06-22T14:07:20;21.80;99.90
36790;DHT22;22740;52.182;8.780;2023-06-22T14:13:22;21.60;99.90
36790;DHT22;22740;52.182;8.780;2023-06-22T14:19:24;21.50;99.90
36790;DHT22;22740;52.182;8.780;2023-06-22T14:25:29;21.10;99.90
36790;DHT22;22740;52.182;8.780;2023-06-22T14:31:30;20.40;99.90
36790;DHT22;22740;52.182;8.780;2023-06-22T14:37:32;20.30;99.90
36790;DHT22;22740;52.182;8.780;2023-06-22T14:43:34;19.80;99.90
36790;DHT22;22740;52.182;8.780;2023-06-22T14:49:36;19.50;99.90
36790;DHT22;22740;52.182;8.780;2023-06-22T14:55:38;19.40;99.90
36790;DHT22;22740;52.182;8.780;2023-06-22T15:01:40;19.50;99.90
36790;DHT22;22740;52.182;8.780;2023-06-22T15:07:43;19.40;99.90
36790;DHT22;22740;52.182;8.780;2023-06-22T15:13:45;19.40;99.90
36790;DHT22;22740;52.182;8.780;2023-06-22T15:19:47;19.50;99.90
36790;DHT22;22740;52.182;8.780;2023-06-22T15:25:49;19.60;99.90
36790;DHT22;22740;52.182;8.780;2023-06-22T15:31:52;19.90;99.90
36790;DHT22;22740;52.182;8.780;2023-06-22T15:37:54;20.00;99.90
36790;DHT22;22740;52.182;8.780;2023-06-22T15:43:56;19.90;99.90
36790;DHT22;22740;52.182;8.780;2023-06-22T15:49:58;20.20;99.90
36790;DHT22;22740;52.182;8.780;2023-06-22T15:56:03;20.20;99.90
36790;DHT22;22740;52.182;8.780;2023-06-22T16:02:07;20.50;99.90
36790;DHT22;22740;52.182;8.780;2023-06-22T16:08:09;20.50;99.90
36790;DHT22;22740;52.182;8.780;2023-06-22T16:14:13;20.60;99.90
36790;DHT22;22740;52.182;8.780;2023-06-22T16:20:15;20.70;99.90
36790;DHT22;22740;52.182;8.780;2023-06-22T16:26:18;20.60;99.90
36790;DHT22;22740;52.182;8.780;2023-06-22T16:32:20;20.50;99.90
36790;DHT22;22740;52.182;8.780;2023-06-22T16:38:22;20.50;99.90
36790;DHT22;22740;52.182;8.780;2023-06-22T16:44:24;20.50;99.90
36790;DHT22;22740;52.182;8.780;2023-06-22T16:50:26;20.50;99.90
36790;DHT22;22740;52.182;8.780;2023-06-22T16:56:28;20.40;99.90
36790;DHT22;22740;52.182;8.780;2023-06-22T17:02:32;20.40;99.90
36790;DHT22;22740;52.182;8.780;2023-06-22T17:08:36;20.30;99.90
36790;DHT22;22740;52.182;8.780;2023-06-22T17:14:41;20.20;99.90
36790;DHT22;22740;52.182;8.780;2023-06-22T17:20:47;20.10;99.90
36790;DHT22;22740;52.182;8.780;2023-06-22T17:26:52;20.20;99.90
36790;DHT22;22740;52.182;8.780;2023-06-22T17:32:54;20.30;99.90
36790;DHT22;22740;52.182;8.780;2023-06-22T17:38:59;20.40;99.90
36790;DHT22;22740;52.182;8.780;2023-06-22T17:45:01;20.40;99.90
36790;DHT22;22740;52.182;8.780;2023-06-22T17:51:03;20.40;99.90
36790;DHT22;22740;52.182;8.780;2023-06-22T17:57:15;20.30;99.90
36790;DHT22;22740;52.182;8.780;2023-06-22T18:03:24;20.30;99.90
36790;DHT22;22740;52.182;8.780;2023-06-22T18:09:26;20.10;99.90
36790;DHT22;22740;52.182;8.780;2023-06-22T18:15:30;20.00;99.90
36790;DHT22;22740;52.182;8.780;2023-06-22T18:21:33;19.90;99.90
36790;DHT22;22740;52.182;8.780;2023-06-22T18:27:36;19.80;99.90
36790;DHT22;22740;52.182;8.780;2023-06-22T18:33:39;19.60;99.90
36790;DHT22;22740;52.182;8.780;2023-06-22T18:39:44;19.50;99.90
36790;DHT22;22740;52.182;8.780;2023-06-22T18:45:47;19.40;99.90
36790;DHT22;22740;52.182;8.780;2023-06-22T18:51:55;19.30;99.90
36790;DHT22;22740;52.182;8.780;2023-06-22T18:58:22;19.30;99.90
36790;DHT22;22740;52.182;8.780;2023-06-22T19:04:24;19.20;99.90
36790;DHT22;22740;52.182;8.780;2023-06-22T19:10:47;19.20;99.90
36790;DHT22;22740;52.182;8.780;2023-06-22T19:16:57;19.20;99.90
36790;DHT22;22740;52.182;8.780;2023-06-22T19:23:00;19.10;99.90
36790;DHT22;22740;52.182;8.780;2023-06-22T19:29:14;19.10;99.90
36790;DHT22;22740;52.182;8.780;2023-06-22T19:35:19;19.00;99.90
36790;DHT22;22740;52.182;8.780;2023-06-22T19:41:22;19.00;99.90
36790;DHT22;22740;52.182;8.780;2023-06-22T19:47:25;18.90;99.90
36790;DHT22;22740;52.182;8.780;2023-06-22T19:53:27;18.90;99.90
36790;DHT22;22740;52.182;8.780;2023-06-22T19:59:30;18.70;99.90
36790;DHT22;22740;52.182;8.780;2023-06-22T20:05:31;18.80;99.90
36790;DHT22;22740;52.182;8.780;2023-06-22T20:11:36;18.70;99.90
36790;DHT22;22740;52.182;8.780;2023-06-22T20:17:41;18.60;99.90
36790;DHT22;22740;52.182;8.780;2023-06-22T20:23:49;18.70;99.90
36790;DHT22;22740;52.182;8.780;2023-06-22T20:29:50;18.60;99.90
36790;DHT22;22740;52.182;8.780;2023-06-22T20:35:52;18.60;99.90
36790;DHT22;22740;52.182;8.780;2023-06-22T20:41:54;18.50;99.90
36790;DHT22;22740;52.182;8.780;2023-06-22T20:47:57;18.50;99.90
36790;DHT22;22740;52.182;8.780;2023-06-22T20:53:59;18.50;99.90
36790;DHT22;22740;52.182;8.780;2023-06-22T21:00:02;18.60;99.90
36790;DHT22;22740;52.182;8.780;2023-06-22T21:06:08;18.50;99.90
36790;DHT22;22740;52.182;8.780;2023-06-22T21:12:09;18.60;99.90
36790;DHT22;22740;52.182;8.780;2023-06-22T21:18:11;18.50;99.90
36790;DHT22;22740;52.182;8.780;2023-06-22T21:24:13;18.40;99.90
36790;DHT22;22740;52.182;8.780;2023-06-22T21:30:15;18.50;99.90
36790;DHT22;22740;52.182;8.780;2023-06-22T21:36:17;18.40;99.90
36790;DHT22;22740;52.182;8.780;2023-06-22T21:42:19;18.50;99.90
36790;DHT22;22740;52.182;8.780;2023-06-22T21:48:23;18.60;99.90
36790;DHT22;22740;52.182;8.780;2023-06-22T21:54:25;18.60;99.90
36790;DHT22;22740;52.182;8.780;2023-06-22T22:00:27;18.70;99.90
36790;DHT22;22740;52.182;8.780;2023-06-22T22:06:29;18.60;99.90
36790;DHT22;22740;52.182;8.780;2023-06-22T22:12:30;18.50;99.90
36790;DHT22;22740;52.182;8.780;2023-06-22T22:18:32;18.50;99.90
36790;DHT22;22740;52.182;8.780;2023-06-22T22:24:34;18.50;99.90
36790;DHT22;22740;52.182;8.780;2023-06-22T22:30:36;18.50;99.90
36790;DHT22;22740;52.182;8.780;2023-06-22T22:36:38;18.40;99.90
36790;DHT22;22740;52.182;8.780;2023-06-22T22:42:43;18.30;99.90
36790;DHT22;22740;52.182;8.780;2023-06-22T22:48:45;18.30;99.90
36790;DHT22;22740;52.182;8.780;2023-06-22T22:54:46;18.40;99.90
36790;DHT22;22740;52.182;8.780;2023-06-22T23:00:49;18.40;99.90
36790;DHT22;22740;52.182;8.780;2023-06-22T23:06:51;18.30;99.90
36790;DHT22;22740;52.182;8.780;2023-06-22T23:12:53;18.30;99.90
36790;DHT22;22740;52.182;8.780;2023-06-22T23:18:55;18.30;99.90
36790;DHT22;22740;52.182;8.780;2023-06-22T23:24:57;18.20;99.90
36790;DHT22;22740;52.182;8.780;2023-06-22T23:30:59;18.40;99.90
36790;DHT22;22740;52.182;8.780;2023-06-22T23:37:01;18.30;99.90
36790;DHT22;22740;52.182;8.780;2023-06-22T23:43:05;18.30;99.90
36790;DHT22;22740;52.182;8.780;2023-06-22T23:49:09;18.40;99.90
36790;DHT22;22740;52.182;8.780;2023-06-22T23:55:11;18.40;99.90
